sensor_id;sensor_type;location;lat;lon;timestamp;P1;durP1;ratioP1;P2;durP2;ratioP2
13469;SDS011;6807;48.682;9.032;2023-06-24T00:00:03;5.15;;;3.95;;
13469;SDS011;6807;48.682;9.032;2023-06-24T00:02:32;4.20;;;3.75;;
13469;SDS011;6807;48.682;9.032;2023-06-24T00:05:01;5.13;;;4.40;;
13469;SDS011;6807;48.682;9.032;2023-06-24T00:07:29;5.35;;;4.20;;
13469;SDS011;6807;48.682;9.032;2023-06-24T00:09:58;4.70;;;4.20;;
13469;SDS011;6807;48.682;9.032;2023-06-24T00:12:25;4.88;;;4.47;;
13469;SDS011;6807;48.682;9.032;2023-06-24T00:14:52;4.82;;;3.88;;
13469;SDS011;6807;48.682;9.032;2023-06-24T00:17:21;6.60;;;4.53;;
13469;SDS011;6807;48.682;9.032;2023-06-24T00:19:48;5.68;;;4.35;;
13469;SDS011;6807;48.682;9.032;2023-06-24T00:22:15;5.93;;;4.60;;
13469;SDS011;6807;48.682;9.032;2023-06-24T00:24:42;5.70;;;4.38;;
13469;SDS011;6807;48.682;9.032;2023-06-24T00:27:11;4.65;;;4.20;;
13469;SDS011;6807;48.682;9.032;2023-06-24T00:29:38;5.90;;;4.38;;
13469;SDS011;6807;48.682;9.032;2023-06-24T00:32:06;7.53;;;4.28;;
13469;SDS011;6807;48.682;9.032;2023-06-24T00:34:33;4.50;;;4.03;;
13469;SDS011;6807;48.682;9.032;2023-06-24T00:37:01;6.03;;;4.47;;
13469;SDS011;6807;48.682;9.032;2023-06-24T00:39:28;4.90;;;4.38;;
13469;SDS011;6807;48.682;9.032;2023-06-24T00:41:55;5.65;;;4.57;;
13469;SDS011;6807;48.682;9.032;2023-06-24T00:44:24;4.38;;;3.80;;
13469;SDS011;6807;48.682;9.032;2023-06-24T00:46:51;5.50;;;4.72;;
13469;SDS011;6807;48.682;9.032;2023-06-24T00:49:18;5.30;;;4.70;;
13469;SDS011;6807;48.682;9.032;2023-06-24T00:51:46;5.97;;;4.90;;
13469;SDS011;6807;48.682;9.032;2023-06-24T00:54:16;5.10;;;4.40;;
13469;SDS011;6807;48.682;9.032;2023-06-24T00:56:43;5.63;;;4.32;;
13469;SDS011;6807;48.682;9.032;2023-06-24T00:59:11;5.03;;;4.45;;
13469;SDS011;6807;48.682;9.032;2023-06-24T01:01:41;5.90;;;4.72;;
13469;SDS011;6807;48.682;9.032;2023-06-24T01:04:10;4.93;;;4.00;;
13469;SDS011;6807;48.682;9.032;2023-06-24T01:06:37;6.53;;;4.75;;
13469;SDS011;6807;48.682;9.032;2023-06-24T01:09:08;7.95;;;4.85;;
13469;SDS011;6807;48.682;9.032;2023-06-24T01:11:36;5.10;;;4.53;;
13469;SDS011;6807;48.682;9.032;2023-06-24T01:14:03;5.68;;;4.68;;
13469;SDS011;6807;48.682;9.032;2023-06-24T01:16:35;4.88;;;3.70;;
13469;SDS011;6807;48.682;9.032;2023-06-24T01:19:16;6.40;;;4.20;;
13469;SDS011;6807;48.682;9.032;2023-06-24T01:21:52;5.32;;;4.47;;
13469;SDS011;6807;48.682;9.032;2023-06-24T01:24:29;5.47;;;4.82;;
13469;SDS011;6807;48.682;9.032;2023-06-24T01:27:10;5.97;;;5.38;;
13469;SDS011;6807;48.682;9.032;2023-06-24T01:29:42;4.90;;;4.40;;
13469;SDS011;6807;48.682;9.032;2023-06-24T01:32:18;5.28;;;4.63;;
13469;SDS011;6807;48.682;9.032;2023-06-24T01:34:48;6.15;;;4.75;;
13469;SDS011;6807;48.682;9.032;2023-06-24T01:37:17;5.40;;;4.88;;
13469;SDS011;6807;48.682;9.032;2023-06-24T01:39:46;5.13;;;4.57;;
13469;SDS011;6807;48.682;9.032;2023-06-24T01:42:14;6.13;;;5.03;;
13469;SDS011;6807;48.682;9.032;2023-06-24T01:44:43;6.32;;;4.93;;
13469;SDS011;6807;48.682;9.032;2023-06-24T01:47:11;5.68;;;4.88;;
13469;SDS011;6807;48.682;9.032;2023-06-24T01:49:45;8.02;;;5.13;;
13469;SDS011;6807;48.682;9.032;2023-06-24T01:52:12;7.50;;;5.00;;
13469;SDS011;6807;48.682;9.032;2023-06-24T01:54:40;5.88;;;4.65;;
13469;SDS011;6807;48.682;9.032;2023-06-24T01:57:08;5.68;;;5.15;;
13469;SDS011;6807;48.682;9.032;2023-06-24T01:59:37;5.78;;;5.15;;
13469;SDS011;6807;48.682;9.032;2023-06-24T02:02:05;7.55;;;5.40;;
13469;SDS011;6807;48.682;9.032;2023-06-24T02:04:33;5.03;;;4.53;;
13469;SDS011;6807;48.682;9.032;2023-06-24T02:07:02;6.50;;;5.57;;
13469;SDS011;6807;48.682;9.032;2023-06-24T02:09:31;6.53;;;5.40;;
13469;SDS011;6807;48.682;9.032;2023-06-24T02:12:00;10.65;;;5.05;;
13469;SDS011;6807;48.682;9.032;2023-06-24T02:14:28;6.28;;;5.25;;
13469;SDS011;6807;48.682;9.032;2023-06-24T02:16:56;5.55;;;4.95;;
13469;SDS011;6807;48.682;9.032;2023-06-24T02:19:27;5.72;;;4.85;;
13469;SDS011;6807;48.682;9.032;2023-06-24T02:22:03;5.45;;;4.90;;
13469;SDS011;6807;48.682;9.032;2023-06-24T02:24:35;9.48;;;6.07;;
13469;SDS011;6807;48.682;9.032;2023-06-24T02:27:03;6.38;;;5.68;;
13469;SDS011;6807;48.682;9.032;2023-06-24T02:29:31;7.25;;;5.63;;
13469;SDS011;6807;48.682;9.032;2023-06-24T02:31:59;6.68;;;5.18;;
13469;SDS011;6807;48.682;9.032;2023-06-24T02:34:27;6.47;;;5.75;;
13469;SDS011;6807;48.682;9.032;2023-06-24T02:36:54;7.35;;;4.95;;
13469;SDS011;6807;48.682;9.032;2023-06-24T02:39:23;8.25;;;5.55;;
13469;SDS011;6807;48.682;9.032;2023-06-24T02:41:50;7.18;;;5.65;;
13469;SDS011;6807;48.682;9.032;2023-06-24T02:44:17;5.55;;;5.05;;
13469;SDS011;6807;48.682;9.032;2023-06-24T02:46:45;7.90;;;5.70;;
13469;SDS011;6807;48.682;9.032;2023-06-24T02:49:13;6.72;;;6.00;;
13469;SDS011;6807;48.682;9.032;2023-06-24T02:51:42;6.72;;;5.40;;
13469;SDS011;6807;48.682;9.032;2023-06-24T02:54:10;7.40;;;5.95;;
13469;SDS011;6807;48.682;9.032;2023-06-24T02:56:39;7.10;;;5.90;;
13469;SDS011;6807;48.682;9.032;2023-06-24T02:59:08;6.40;;;5.75;;
13469;SDS011;6807;48.682;9.032;2023-06-24T03:01:36;6.22;;;5.60;;
13469;SDS011;6807;48.682;9.032;2023-06-24T03:04:04;7.43;;;5.43;;
13469;SDS011;6807;48.682;9.032;2023-06-24T03:06:31;6.05;;;5.38;;
13469;SDS011;6807;48.682;9.032;2023-06-24T03:09:01;6.45;;;5.70;;
13469;SDS011;6807;48.682;9.032;2023-06-24T03:11:29;6.63;;;5.57;;
13469;SDS011;6807;48.682;9.032;2023-06-24T03:13:59;7.20;;;4.97;;
13469;SDS011;6807;48.682;9.032;2023-06-24T03:16:26;7.45;;;6.40;;
13469;SDS011;6807;48.682;9.032;2023-06-24T03:18:53;6.47;;;5.50;;
13469;SDS011;6807;48.682;9.032;2023-06-24T03:21:20;9.48;;;6.35;;
13469;SDS011;6807;48.682;9.032;2023-06-24T03:23:53;6.57;;;5.45;;
13469;SDS011;6807;48.682;9.032;2023-06-24T03:26:20;8.45;;;6.18;;
13469;SDS011;6807;48.682;9.032;2023-06-24T03:28:48;7.97;;;5.85;;
13469;SDS011;6807;48.682;9.032;2023-06-24T03:31:16;7.97;;;6.07;;
13469;SDS011;6807;48.682;9.032;2023-06-24T03:33:48;7.28;;;6.18;;
13469;SDS011;6807;48.682;9.032;2023-06-24T03:36:15;6.50;;;5.70;;
13469;SDS011;6807;48.682;9.032;2023-06-24T03:38:42;6.82;;;5.57;;
13469;SDS011;6807;48.682;9.032;2023-06-24T03:41:09;8.55;;;6.70;;
13469;SDS011;6807;48.682;9.032;2023-06-24T03:43:37;9.27;;;6.57;;
13469;SDS011;6807;48.682;9.032;2023-06-24T03:46:04;7.75;;;6.47;;
13469;SDS011;6807;48.682;9.032;2023-06-24T03:48:32;8.05;;;6.30;;
13469;SDS011;6807;48.682;9.032;2023-06-24T03:50:59;9.20;;;6.38;;
13469;SDS011;6807;48.682;9.032;2023-06-24T03:53:27;6.65;;;5.85;;
13469;SDS011;6807;48.682;9.032;2023-06-24T03:55:54;7.28;;;6.43;;
13469;SDS011;6807;48.682;9.032;2023-06-24T03:58:21;7.07;;;6.25;;
13469;SDS011;6807;48.682;9.032;2023-06-24T04:00:48;10.23;;;6.38;;
13469;SDS011;6807;48.682;9.032;2023-06-24T04:03:16;8.23;;;6.25;;
13469;SDS011;6807;48.682;9.032;2023-06-24T04:05:45;10.07;;;6.57;;
13469;SDS011;6807;48.682;9.032;2023-06-24T04:08:12;10.07;;;6.88;;
13469;SDS011;6807;48.682;9.032;2023-06-24T04:10:40;7.28;;;6.45;;
13469;SDS011;6807;48.682;9.032;2023-06-24T04:13:08;7.82;;;6.32;;
13469;SDS011;6807;48.682;9.032;2023-06-24T04:15:35;7.22;;;5.68;;
13469;SDS011;6807;48.682;9.032;2023-06-24T04:18:03;7.38;;;6.07;;
13469;SDS011;6807;48.682;9.032;2023-06-24T04:20:30;6.57;;;5.90;;
13469;SDS011;6807;48.682;9.032;2023-06-24T04:22:58;7.47;;;5.97;;
13469;SDS011;6807;48.682;9.032;2023-06-24T04:25:26;6.63;;;5.95;;
13469;SDS011;6807;48.682;9.032;2023-06-24T04:27:53;7.28;;;5.93;;
13469;SDS011;6807;48.682;9.032;2023-06-24T04:30:20;7.65;;;6.32;;
13469;SDS011;6807;48.682;9.032;2023-06-24T04:32:48;8.27;;;5.78;;
13469;SDS011;6807;48.682;9.032;2023-06-24T04:35:16;7.38;;;5.85;;
13469;SDS011;6807;48.682;9.032;2023-06-24T04:38:02;7.35;;;6.07;;
13469;SDS011;6807;48.682;9.032;2023-06-24T04:43:34;7.03;;;6.32;;
13469;SDS011;6807;48.682;9.032;2023-06-24T04:46:01;7.15;;;6.43;;
13469;SDS011;6807;48.682;9.032;2023-06-24T04:48:28;7.00;;;6.15;;
13469;SDS011;6807;48.682;9.032;2023-06-24T04:50:56;7.18;;;6.47;;
13469;SDS011;6807;48.682;9.032;2023-06-24T04:53:24;7.13;;;6.43;;
13469;SDS011;6807;48.682;9.032;2023-06-24T04:55:51;8.43;;;6.15;;
13469;SDS011;6807;48.682;9.032;2023-06-24T04:58:19;7.40;;;6.30;;
13469;SDS011;6807;48.682;9.032;2023-06-24T05:00:46;7.13;;;6.43;;
13469;SDS011;6807;48.682;9.032;2023-06-24T05:03:13;8.23;;;6.68;;
13469;SDS011;6807;48.682;9.032;2023-06-24T05:05:40;9.50;;;6.25;;
13469;SDS011;6807;48.682;9.032;2023-06-24T05:08:07;8.35;;;5.78;;
13469;SDS011;6807;48.682;9.032;2023-06-24T05:10:36;8.05;;;6.65;;
13469;SDS011;6807;48.682;9.032;2023-06-24T05:13:03;6.85;;;5.50;;
13469;SDS011;6807;48.682;9.032;2023-06-24T05:15:30;6.28;;;5.28;;
13469;SDS011;6807;48.682;9.032;2023-06-24T05:17:58;6.20;;;5.40;;
13469;SDS011;6807;48.682;9.032;2023-06-24T05:20:25;7.10;;;6.20;;
13469;SDS011;6807;48.682;9.032;2023-06-24T05:22:52;6.13;;;4.95;;
13469;SDS011;6807;48.682;9.032;2023-06-24T05:25:19;5.55;;;5.03;;
13469;SDS011;6807;48.682;9.032;2023-06-24T05:27:49;5.88;;;4.97;;
13469;SDS011;6807;48.682;9.032;2023-06-24T05:30:16;6.35;;;5.22;;
13469;SDS011;6807;48.682;9.032;2023-06-24T05:32:43;6.57;;;5.18;;
13469;SDS011;6807;48.682;9.032;2023-06-24T05:35:11;6.00;;;5.30;;
13469;SDS011;6807;48.682;9.032;2023-06-24T05:37:38;7.35;;;5.32;;
13469;SDS011;6807;48.682;9.032;2023-06-24T05:40:05;6.10;;;4.95;;
13469;SDS011;6807;48.682;9.032;2023-06-24T05:42:34;6.28;;;5.43;;
13469;SDS011;6807;48.682;9.032;2023-06-24T05:45:03;5.35;;;4.85;;
13469;SDS011;6807;48.682;9.032;2023-06-24T05:47:31;5.88;;;5.28;;
13469;SDS011;6807;48.682;9.032;2023-06-24T05:49:58;5.88;;;5.28;;
13469;SDS011;6807;48.682;9.032;2023-06-24T05:52:25;5.45;;;4.90;;
13469;SDS011;6807;48.682;9.032;2023-06-24T05:54:54;6.05;;;4.82;;
13469;SDS011;6807;48.682;9.032;2023-06-24T05:57:21;7.05;;;4.78;;
13469;SDS011;6807;48.682;9.032;2023-06-24T05:59:48;5.35;;;4.65;;
13469;SDS011;6807;48.682;9.032;2023-06-24T06:02:17;5.10;;;4.57;;
13469;SDS011;6807;48.682;9.032;2023-06-24T06:04:44;6.05;;;4.45;;
13469;SDS011;6807;48.682;9.032;2023-06-24T06:07:11;5.00;;;4.50;;
13469;SDS011;6807;48.682;9.032;2023-06-24T06:09:38;4.95;;;4.45;;
13469;SDS011;6807;48.682;9.032;2023-06-24T06:12:06;5.35;;;4.63;;
13469;SDS011;6807;48.682;9.032;2023-06-24T06:14:33;5.38;;;4.30;;
13469;SDS011;6807;48.682;9.032;2023-06-24T06:17:00;4.47;;;4.07;;
13469;SDS011;6807;48.682;9.032;2023-06-24T06:19:29;7.57;;;4.35;;
13469;SDS011;6807;48.682;9.032;2023-06-24T06:21:56;5.45;;;4.40;;
13469;SDS011;6807;48.682;9.032;2023-06-24T06:24:23;5.72;;;4.45;;
13469;SDS011;6807;48.682;9.032;2023-06-24T06:26:51;5.50;;;4.07;;
13469;SDS011;6807;48.682;9.032;2023-06-24T06:29:18;5.38;;;3.85;;
13469;SDS011;6807;48.682;9.032;2023-06-24T06:31:45;5.90;;;4.28;;
13469;SDS011;6807;48.682;9.032;2023-06-24T06:34:12;6.03;;;3.72;;
13469;SDS011;6807;48.682;9.032;2023-06-24T06:36:41;4.00;;;3.70;;
13469;SDS011;6807;48.682;9.032;2023-06-24T06:39:08;4.25;;;3.85;;
13469;SDS011;6807;48.682;9.032;2023-06-24T06:41:35;3.60;;;3.30;;
13469;SDS011;6807;48.682;9.032;2023-06-24T06:44:03;5.70;;;3.85;;
13469;SDS011;6807;48.682;9.032;2023-06-24T06:46:30;4.45;;;3.75;;
13469;SDS011;6807;48.682;9.032;2023-06-24T06:48:57;4.20;;;3.80;;
13469;SDS011;6807;48.682;9.032;2023-06-24T06:51:25;4.57;;;3.72;;
13469;SDS011;6807;48.682;9.032;2023-06-24T06:53:53;4.85;;;4.10;;
13469;SDS011;6807;48.682;9.032;2023-06-24T06:56:22;3.92;;;3.53;;
13469;SDS011;6807;48.682;9.032;2023-06-24T06:58:50;4.43;;;4.03;;
13469;SDS011;6807;48.682;9.032;2023-06-24T07:01:19;6.90;;;4.13;;
13469;SDS011;6807;48.682;9.032;2023-06-24T07:03:46;4.80;;;4.00;;
13469;SDS011;6807;48.682;9.032;2023-06-24T07:06:13;3.92;;;3.53;;
13469;SDS011;6807;48.682;9.032;2023-06-24T07:08:41;4.95;;;3.75;;
13469;SDS011;6807;48.682;9.032;2023-06-24T07:11:10;5.30;;;4.10;;
13469;SDS011;6807;48.682;9.032;2023-06-24T07:13:37;3.72;;;3.25;;
13469;SDS011;6807;48.682;9.032;2023-06-24T07:16:04;4.07;;;3.67;;
13469;SDS011;6807;48.682;9.032;2023-06-24T07:18:32;5.40;;;3.85;;
13469;SDS011;6807;48.682;9.032;2023-06-24T07:20:59;5.13;;;3.78;;
13469;SDS011;6807;48.682;9.032;2023-06-24T07:23:27;5.57;;;3.90;;
13469;SDS011;6807;48.682;9.032;2023-06-24T07:25:54;4.85;;;3.70;;
13469;SDS011;6807;48.682;9.032;2023-06-24T07:28:23;5.18;;;3.63;;
13469;SDS011;6807;48.682;9.032;2023-06-24T07:30:50;6.03;;;3.50;;
13469;SDS011;6807;48.682;9.032;2023-06-24T07:33:17;4.25;;;3.58;;
13469;SDS011;6807;48.682;9.032;2023-06-24T07:35:45;3.90;;;3.50;;
13469;SDS011;6807;48.682;9.032;2023-06-24T07:38:12;3.63;;;3.25;;
13469;SDS011;6807;48.682;9.032;2023-06-24T07:40:39;3.65;;;3.30;;
13469;SDS011;6807;48.682;9.032;2023-06-24T07:43:06;3.70;;;3.22;;
13469;SDS011;6807;48.682;9.032;2023-06-24T07:45:35;4.65;;;3.40;;
13469;SDS011;6807;48.682;9.032;2023-06-24T07:48:02;3.90;;;3.35;;
13469;SDS011;6807;48.682;9.032;2023-06-24T07:50:30;4.65;;;3.10;;
13469;SDS011;6807;48.682;9.032;2023-06-24T07:52:57;4.53;;;3.30;;
13469;SDS011;6807;48.682;9.032;2023-06-24T07:55:24;3.70;;;3.40;;
13469;SDS011;6807;48.682;9.032;2023-06-24T07:57:52;5.18;;;3.30;;
13469;SDS011;6807;48.682;9.032;2023-06-24T08:00:19;3.80;;;3.35;;
13469;SDS011;6807;48.682;9.032;2023-06-24T08:02:47;3.90;;;3.35;;
13469;SDS011;6807;48.682;9.032;2023-06-24T08:05:15;3.80;;;3.17;;
13469;SDS011;6807;48.682;9.032;2023-06-24T08:07:44;3.63;;;3.25;;
13469;SDS011;6807;48.682;9.032;2023-06-24T08:10:11;5.43;;;3.47;;
13469;SDS011;6807;48.682;9.032;2023-06-24T08:12:38;4.07;;;3.33;;
13469;SDS011;6807;48.682;9.032;2023-06-24T08:15:06;3.50;;;3.17;;
13469;SDS011;6807;48.682;9.032;2023-06-24T08:17:33;4.00;;;3.58;;
13469;SDS011;6807;48.682;9.032;2023-06-24T08:20:02;3.85;;;3.25;;
13469;SDS011;6807;48.682;9.032;2023-06-24T08:22:30;3.50;;;3.20;;
13469;SDS011;6807;48.682;9.032;2023-06-24T08:24:58;3.95;;;3.55;;
13469;SDS011;6807;48.682;9.032;2023-06-24T08:27:25;4.00;;;3.63;;
13469;SDS011;6807;48.682;9.032;2023-06-24T08:29:52;3.85;;;3.45;;
13469;SDS011;6807;48.682;9.032;2023-06-24T08:32:19;6.72;;;3.50;;
13469;SDS011;6807;48.682;9.032;2023-06-24T08:34:46;3.90;;;3.50;;
13469;SDS011;6807;48.682;9.032;2023-06-24T08:37:15;3.00;;;2.78;;
13469;SDS011;6807;48.682;9.032;2023-06-24T08:39:42;3.40;;;3.10;;
13469;SDS011;6807;48.682;9.032;2023-06-24T08:42:09;4.10;;;3.05;;
13469;SDS011;6807;48.682;9.032;2023-06-24T08:44:36;3.78;;;2.72;;
13469;SDS011;6807;48.682;9.032;2023-06-24T08:47:04;3.25;;;2.95;;
13469;SDS011;6807;48.682;9.032;2023-06-24T08:49:31;3.00;;;2.70;;
13469;SDS011;6807;48.682;9.032;2023-06-24T08:52:06;3.72;;;3.00;;
13469;SDS011;6807;48.682;9.032;2023-06-24T08:54:38;3.30;;;3.00;;
13469;SDS011;6807;48.682;9.032;2023-06-24T08:57:08;5.25;;;2.80;;
13469;SDS011;6807;48.682;9.032;2023-06-24T08:59:39;3.42;;;2.95;;
13469;SDS011;6807;48.682;9.032;2023-06-24T09:02:08;3.38;;;3.08;;
13469;SDS011;6807;48.682;9.032;2023-06-24T09:04:36;3.80;;;3.15;;
13469;SDS011;6807;48.682;9.032;2023-06-24T09:07:03;3.40;;;3.10;;
13469;SDS011;6807;48.682;9.032;2023-06-24T09:09:30;3.60;;;3.30;;
13469;SDS011;6807;48.682;9.032;2023-06-24T09:11:59;3.80;;;3.03;;
13469;SDS011;6807;48.682;9.032;2023-06-24T09:14:28;8.57;;;3.00;;
13469;SDS011;6807;48.682;9.032;2023-06-24T09:16:56;6.55;;;2.95;;
13469;SDS011;6807;48.682;9.032;2023-06-24T09:19:26;4.43;;;3.22;;
13469;SDS011;6807;48.682;9.032;2023-06-24T09:21:55;7.10;;;2.97;;
13469;SDS011;6807;48.682;9.032;2023-06-24T09:24:26;6.47;;;3.38;;
13469;SDS011;6807;48.682;9.032;2023-06-24T09:26:55;3.00;;;2.80;;
13469;SDS011;6807;48.682;9.032;2023-06-24T09:29:26;3.88;;;2.78;;
13469;SDS011;6807;48.682;9.032;2023-06-24T09:31:54;3.78;;;2.92;;
13469;SDS011;6807;48.682;9.032;2023-06-24T09:34:23;17.50;;;4.13;;
13469;SDS011;6807;48.682;9.032;2023-06-24T09:36:51;7.30;;;3.15;;
13469;SDS011;6807;48.682;9.032;2023-06-24T09:39:19;16.67;;;3.40;;
13469;SDS011;6807;48.682;9.032;2023-06-24T09:41:53;3.17;;;2.80;;
13469;SDS011;6807;48.682;9.032;2023-06-24T09:44:20;3.08;;;2.88;;
13469;SDS011;6807;48.682;9.032;2023-06-24T09:47:04;3.10;;;2.80;;
13469;SDS011;6807;48.682;9.032;2023-06-24T09:49:32;5.05;;;2.92;;
13469;SDS011;6807;48.682;9.032;2023-06-24T09:51:59;3.13;;;2.83;;
13469;SDS011;6807;48.682;9.032;2023-06-24T09:54:28;3.35;;;2.80;;
13469;SDS011;6807;48.682;9.032;2023-06-24T09:56:57;4.10;;;2.90;;
13469;SDS011;6807;48.682;9.032;2023-06-24T09:59:28;3.25;;;2.95;;
13469;SDS011;6807;48.682;9.032;2023-06-24T10:01:58;3.42;;;2.67;;
13469;SDS011;6807;48.682;9.032;2023-06-24T10:04:27;3.15;;;2.85;;
13469;SDS011;6807;48.682;9.032;2023-06-24T10:06:55;3.00;;;2.80;;
13469;SDS011;6807;48.682;9.032;2023-06-24T10:09:23;4.68;;;3.03;;
13469;SDS011;6807;48.682;9.032;2023-06-24T10:11:50;3.50;;;3.08;;
13469;SDS011;6807;48.682;9.032;2023-06-24T10:14:17;3.25;;;2.92;;
13469;SDS011;6807;48.682;9.032;2023-06-24T10:16:44;3.90;;;2.83;;
13469;SDS011;6807;48.682;9.032;2023-06-24T10:19:16;7.03;;;3.17;;
13469;SDS011;6807;48.682;9.032;2023-06-24T10:21:49;3.60;;;2.97;;
13469;SDS011;6807;48.682;9.032;2023-06-24T10:27:00;4.13;;;2.78;;
13469;SDS011;6807;48.682;9.032;2023-06-24T10:29:32;3.03;;;2.70;;
13469;SDS011;6807;48.682;9.032;2023-06-24T10:32:04;2.78;;;2.58;;
13469;SDS011;6807;48.682;9.032;2023-06-24T10:34:32;4.95;;;2.83;;
13469;SDS011;6807;48.682;9.032;2023-06-24T10:37:03;3.10;;;2.80;;
13469;SDS011;6807;48.682;9.032;2023-06-24T10:39:47;7.78;;;3.53;;
13469;SDS011;6807;48.682;9.032;2023-06-24T10:42:25;3.70;;;2.80;;
13469;SDS011;6807;48.682;9.032;2023-06-24T10:45:18;3.88;;;3.47;;
13469;SDS011;6807;48.682;9.032;2023-06-24T10:47:46;5.55;;;2.90;;
13469;SDS011;6807;48.682;9.032;2023-06-24T10:50:15;3.10;;;2.80;;
13469;SDS011;6807;48.682;9.032;2023-06-24T10:52:44;3.47;;;2.40;;
13469;SDS011;6807;48.682;9.032;2023-06-24T10:55:16;2.78;;;2.58;;
13469;SDS011;6807;48.682;9.032;2023-06-24T10:57:44;3.20;;;2.90;;
13469;SDS011;6807;48.682;9.032;2023-06-24T11:00:12;5.22;;;3.08;;
13469;SDS011;6807;48.682;9.032;2023-06-24T11:02:40;3.13;;;2.78;;
13469;SDS011;6807;48.682;9.032;2023-06-24T11:05:08;3.08;;;2.75;;
13469;SDS011;6807;48.682;9.032;2023-06-24T11:07:36;2.88;;;2.50;;
13469;SDS011;6807;48.682;9.032;2023-06-24T11:10:06;2.83;;;2.63;;
13469;SDS011;6807;48.682;9.032;2023-06-24T11:12:34;3.17;;;2.60;;
13469;SDS011;6807;48.682;9.032;2023-06-24T11:15:02;3.67;;;2.97;;
13469;SDS011;6807;48.682;9.032;2023-06-24T11:17:30;2.97;;;2.60;;
13469;SDS011;6807;48.682;9.032;2023-06-24T11:19:59;3.50;;;2.70;;
13469;SDS011;6807;48.682;9.032;2023-06-24T11:22:27;3.28;;;2.78;;
13469;SDS011;6807;48.682;9.032;2023-06-24T11:24:54;4.47;;;2.90;;
13469;SDS011;6807;48.682;9.032;2023-06-24T11:27:29;3.25;;;2.95;;
13469;SDS011;6807;48.682;9.032;2023-06-24T11:30:01;2.95;;;2.65;;
13469;SDS011;6807;48.682;9.032;2023-06-24T11:32:35;3.20;;;2.90;;
13469;SDS011;6807;48.682;9.032;2023-06-24T11:35:03;3.00;;;2.78;;
13469;SDS011;6807;48.682;9.032;2023-06-24T11:37:31;3.08;;;2.78;;
13469;SDS011;6807;48.682;9.032;2023-06-24T11:40:01;2.90;;;2.70;;
13469;SDS011;6807;48.682;9.032;2023-06-24T11:42:31;2.88;;;2.53;;
13469;SDS011;6807;48.682;9.032;2023-06-24T11:45:01;3.25;;;2.53;;
13469;SDS011;6807;48.682;9.032;2023-06-24T11:47:31;2.55;;;2.35;;
13469;SDS011;6807;48.682;9.032;2023-06-24T11:49:59;2.80;;;2.60;;
13469;SDS011;6807;48.682;9.032;2023-06-24T11:52:31;4.93;;;2.90;;
13469;SDS011;6807;48.682;9.032;2023-06-24T11:55:04;3.58;;;2.65;;
13469;SDS011;6807;48.682;9.032;2023-06-24T11:57:47;6.00;;;2.92;;
13469;SDS011;6807;48.682;9.032;2023-06-24T12:00:23;3.22;;;2.92;;
13469;SDS011;6807;48.682;9.032;2023-06-24T12:02:52;3.22;;;2.85;;
13469;SDS011;6807;48.682;9.032;2023-06-24T12:05:21;3.28;;;2.97;;
13469;SDS011;6807;48.682;9.032;2023-06-24T12:07:52;2.72;;;2.53;;
13469;SDS011;6807;48.682;9.032;2023-06-24T12:10:23;3.65;;;2.67;;
13469;SDS011;6807;48.682;9.032;2023-06-24T12:12:51;3.17;;;2.88;;
13469;SDS011;6807;48.682;9.032;2023-06-24T12:15:19;3.38;;;3.03;;
13469;SDS011;6807;48.682;9.032;2023-06-24T12:17:46;3.92;;;2.90;;
13469;SDS011;6807;48.682;9.032;2023-06-24T12:20:13;3.30;;;3.00;;
13469;SDS011;6807;48.682;9.032;2023-06-24T12:22:40;3.30;;;3.00;;
13469;SDS011;6807;48.682;9.032;2023-06-24T12:25:08;3.55;;;3.05;;
13469;SDS011;6807;48.682;9.032;2023-06-24T12:27:35;3.08;;;2.75;;
13469;SDS011;6807;48.682;9.032;2023-06-24T12:30:05;2.85;;;2.60;;
13469;SDS011;6807;48.682;9.032;2023-06-24T12:32:33;3.20;;;2.80;;
13469;SDS011;6807;48.682;9.032;2023-06-24T12:35:00;3.10;;;2.80;;
13469;SDS011;6807;48.682;9.032;2023-06-24T12:37:29;3.33;;;2.80;;
13469;SDS011;6807;48.682;9.032;2023-06-24T12:39:57;3.50;;;2.85;;
13469;SDS011;6807;48.682;9.032;2023-06-24T12:42:24;2.85;;;2.65;;
13469;SDS011;6807;48.682;9.032;2023-06-24T12:44:51;2.85;;;2.65;;
13469;SDS011;6807;48.682;9.032;2023-06-24T12:47:19;4.30;;;2.80;;
13469;SDS011;6807;48.682;9.032;2023-06-24T12:49:46;3.13;;;2.83;;
13469;SDS011;6807;48.682;9.032;2023-06-24T12:52:15;6.43;;;3.28;;
13469;SDS011;6807;48.682;9.032;2023-06-24T12:54:42;2.85;;;2.63;;
13469;SDS011;6807;48.682;9.032;2023-06-24T12:57:09;3.13;;;2.83;;
13469;SDS011;6807;48.682;9.032;2023-06-24T12:59:36;3.05;;;2.75;;
13469;SDS011;6807;48.682;9.032;2023-06-24T13:02:04;2.88;;;2.58;;
13469;SDS011;6807;48.682;9.032;2023-06-24T13:04:33;3.25;;;2.50;;
13469;SDS011;6807;48.682;9.032;2023-06-24T13:07:01;4.78;;;2.90;;
13469;SDS011;6807;48.682;9.032;2023-06-24T13:09:28;3.22;;;2.92;;
13469;SDS011;6807;48.682;9.032;2023-06-24T13:11:55;3.20;;;2.60;;
13469;SDS011;6807;48.682;9.032;2023-06-24T13:14:22;3.05;;;2.75;;
13469;SDS011;6807;48.682;9.032;2023-06-24T13:16:50;3.22;;;2.67;;
13469;SDS011;6807;48.682;9.032;2023-06-24T13:19:17;3.80;;;2.72;;
13469;SDS011;6807;48.682;9.032;2023-06-24T13:21:46;3.22;;;2.65;;
13469;SDS011;6807;48.682;9.032;2023-06-24T13:24:13;3.33;;;2.83;;
13469;SDS011;6807;48.682;9.032;2023-06-24T13:26:40;3.40;;;3.10;;
13469;SDS011;6807;48.682;9.032;2023-06-24T13:29:07;3.38;;;2.85;;
13469;SDS011;6807;48.682;9.032;2023-06-24T13:31:34;2.95;;;2.65;;
13469;SDS011;6807;48.682;9.032;2023-06-24T13:34:01;5.28;;;3.08;;
13469;SDS011;6807;48.682;9.032;2023-06-24T13:36:30;5.07;;;3.17;;
13469;SDS011;6807;48.682;9.032;2023-06-24T13:39:01;3.13;;;2.83;;
13469;SDS011;6807;48.682;9.032;2023-06-24T13:41:29;3.10;;;2.55;;
13469;SDS011;6807;48.682;9.032;2023-06-24T13:43:57;3.45;;;3.15;;
13469;SDS011;6807;48.682;9.032;2023-06-24T13:46:25;3.53;;;2.80;;
13469;SDS011;6807;48.682;9.032;2023-06-24T13:48:52;4.00;;;3.20;;
13469;SDS011;6807;48.682;9.032;2023-06-24T13:51:19;3.30;;;3.00;;
13469;SDS011;6807;48.682;9.032;2023-06-24T13:53:47;2.88;;;2.63;;
13469;SDS011;6807;48.682;9.032;2023-06-24T13:56:17;3.33;;;3.05;;
13469;SDS011;6807;48.682;9.032;2023-06-24T13:58:44;2.92;;;2.63;;
13469;SDS011;6807;48.682;9.032;2023-06-24T14:01:11;3.28;;;2.78;;
13469;SDS011;6807;48.682;9.032;2023-06-24T14:03:40;3.10;;;2.80;;
13469;SDS011;6807;48.682;9.032;2023-06-24T14:06:07;3.17;;;2.88;;
13469;SDS011;6807;48.682;9.032;2023-06-24T14:08:34;4.63;;;3.08;;
13469;SDS011;6807;48.682;9.032;2023-06-24T14:11:02;3.30;;;3.00;;
13469;SDS011;6807;48.682;9.032;2023-06-24T14:13:30;3.30;;;3.00;;
13469;SDS011;6807;48.682;9.032;2023-06-24T14:15:57;3.47;;;2.78;;
13469;SDS011;6807;48.682;9.032;2023-06-24T14:18:25;3.30;;;3.00;;
13469;SDS011;6807;48.682;9.032;2023-06-24T14:20:51;3.30;;;2.97;;
13469;SDS011;6807;48.682;9.032;2023-06-24T14:23:18;3.72;;;3.20;;
13469;SDS011;6807;48.682;9.032;2023-06-24T14:25:46;3.22;;;2.90;;
13469;SDS011;6807;48.682;9.032;2023-06-24T14:28:13;4.28;;;3.22;;
13469;SDS011;6807;48.682;9.032;2023-06-24T14:30:41;3.15;;;2.47;;
13469;SDS011;6807;48.682;9.032;2023-06-24T14:33:08;4.07;;;3.00;;
13469;SDS011;6807;48.682;9.032;2023-06-24T14:35:35;2.95;;;2.65;;
13469;SDS011;6807;48.682;9.032;2023-06-24T14:38:02;4.18;;;3.03;;
13469;SDS011;6807;48.682;9.032;2023-06-24T14:40:29;4.35;;;3.17;;
13469;SDS011;6807;48.682;9.032;2023-06-24T14:42:57;3.28;;;2.80;;
13469;SDS011;6807;48.682;9.032;2023-06-24T14:45:24;3.25;;;2.95;;
13469;SDS011;6807;48.682;9.032;2023-06-24T14:47:52;4.13;;;2.90;;
13469;SDS011;6807;48.682;9.032;2023-06-24T14:50:19;3.20;;;2.90;;
13469;SDS011;6807;48.682;9.032;2023-06-24T14:52:46;4.32;;;2.88;;
13469;SDS011;6807;48.682;9.032;2023-06-24T14:55:13;3.97;;;3.25;;
13469;SDS011;6807;48.682;9.032;2023-06-24T14:57:40;3.50;;;2.80;;
13469;SDS011;6807;48.682;9.032;2023-06-24T15:00:07;3.67;;;3.17;;
13469;SDS011;6807;48.682;9.032;2023-06-24T15:02:36;6.22;;;3.20;;
13469;SDS011;6807;48.682;9.032;2023-06-24T15:05:04;3.75;;;3.20;;
13469;SDS011;6807;48.682;9.032;2023-06-24T15:07:31;3.60;;;3.10;;
13469;SDS011;6807;48.682;9.032;2023-06-24T15:09:58;3.40;;;3.10;;
13469;SDS011;6807;48.682;9.032;2023-06-24T15:12:25;3.72;;;3.20;;